Time;durP1;ratioP1;P1;durP2;ratioP2;P2;SDS_P1;SDS_P2;PMS_P1;PMS_P2;Temp;Humidity;BMP_temperature;BMP_pressure;BME280_temperature;BME280_humidity;BME280_pressure;Samples;Min_cycle;Max_cycle;Signal;HPM_P1;HPM_P2
2022/12/02 00:00:21;;;;;;;0.30;0.30;;;;;;;4.14;100.00;102579.03;4964943;28;20026;-76
2022/12/02 00:02:47;;;;;;;0.20;0.20;;;;;;;4.13;100.00;102581.75;4975947;28;20068;-76
2022/12/02 00:05:17;;;;;;;0.20;0.20;;;;;;;4.07;100.00;102574.78;4990705;28;20053;-76
2022/12/02 00:07:44;;;;;;;0.20;0.20;;;;;;;3.97;100.00;102581.19;4989108;28;20026;-76
2022/12/02 00:10:26;;;;;;;0.20;0.20;;;;;;;3.87;100.00;102576.06;5001800;28;20040;-77
2022/12/02 00:12:52;;;;;;;0.20;0.20;;;;;;;3.67;100.00;102541.09;4999567;28;20080;-76
2022/12/02 00:15:37;;;;;;;0.28;0.28;;;;;;;3.82;100.00;102562.03;4987667;28;20480;-76
2022/12/02 00:18:03;;;;;;;0.20;0.20;;;;;;;3.80;100.00;102563.84;4997547;28;20453;-76
2022/12/02 00:20:28;;;;;;;0.20;0.20;;;;;;;3.89;100.00;102563.63;4981522;28;20353;-76
2022/12/02 00:22:53;;;;;;;0.20;0.20;;;;;;;3.81;100.00;102554.97;4963970;28;20033;-76
2022/12/02 00:25:19;;;;;;;0.25;0.25;;;;;;;3.70;100.00;102533.97;4985820;28;20041;-76
2022/12/02 00:27:44;;;;;;;0.20;0.20;;;;;;;3.80;100.00;102542.59;4986615;28;20040;-76
2022/12/02 00:30:10;;;;;;;0.20;0.20;;;;;;;3.90;100.00;102545.91;4970968;28;20505;-76
2022/12/02 00:32:35;;;;;;;0.20;0.20;;;;;;;3.67;100.00;102542.00;4983130;28;20544;-76
2022/12/02 00:35:01;;;;;;;0.25;0.25;;;;;;;3.66;100.00;102531.38;4980609;28;20091;-77
2022/12/02 00:37:26;;;;;;;0.20;0.20;;;;;;;3.71;100.00;102559.59;4968146;28;20041;-76
2022/12/02 00:39:51;;;;;;;0.20;0.20;;;;;;;3.67;100.00;102530.47;4986119;28;20057;-76
2022/12/02 00:42:16;;;;;;;0.20;0.20;;;;;;;3.68;100.00;102535.78;4981779;28;20033;-77
2022/12/02 00:47:45;;;;;;;0.30;0.30;;;;;;;3.66;100.00;102534.94;4903577;29;20054;-76
2022/12/02 00:50:11;;;;;;;0.20;0.20;;;;;;;3.78;100.00;102557.69;4920169;29;20442;-77
2022/12/02 00:52:36;;;;;;;0.20;0.20;;;;;;;3.69;100.00;102553.47;4938533;28;20520;-76
2022/12/02 00:55:02;;;;;;;0.20;0.20;;;;;;;3.78;100.00;102551.50;4971963;28;20034;-77
2022/12/02 00:57:28;;;;;;;0.20;0.20;;;;;;;3.79;100.00;102548.81;4982316;28;20033;-76
2022/12/02 00:59:53;;;;;;;0.20;0.20;;;;;;;3.63;100.00;102524.38;4966955;28;20034;-77
2022/12/02 01:02:18;;;;;;;0.20;0.20;;;;;;;3.47;100.00;102505.22;4972373;28;20084;-76
2022/12/02 01:04:44;;;;;;;0.30;0.30;;;;;;;3.57;100.00;102530.69;4970000;28;20476;-76
2022/12/02 01:07:09;;;;;;;0.20;0.20;;;;;;;3.63;100.00;102528.78;4982577;28;20069;-76
2022/12/02 01:09:35;;;;;;;0.20;0.20;;;;;;;3.64;100.00;102539.41;4983947;28;20038;-76
2022/12/02 01:12:00;;;;;;;0.20;0.20;;;;;;;3.41;100.00;102521.28;4974377;28;20034;-77
2022/12/02 01:14:25;;;;;;;0.20;0.20;;;;;;;3.26;100.00;102501.22;4962324;28;20069;-77
2022/12/02 01:16:51;;;;;;;0.20;0.20;;;;;;;3.38;100.00;102508.94;4964225;28;20040;-77
2022/12/02 01:19:16;;;;;;;0.20;0.20;;;;;;;3.48;100.00;102524.66;4975417;28;20030;-76
2022/12/02 01:21:41;;;;;;;0.30;0.30;;;;;;;3.20;100.00;102506.66;4985134;28;20030;-77
2022/12/02 01:24:07;;;;;;;0.20;0.20;;;;;;;3.18;100.00;102525.28;4975788;28;20022;-77
2022/12/02 01:26:32;;;;;;;0.20;0.20;;;;;;;3.25;100.00;102521.59;4973851;28;20130;-77
2022/12/02 01:28:57;;;;;;;0.30;0.30;;;;;;;3.24;100.00;102527.81;4970048;28;20034;-76
2022/12/02 01:31:23;;;;;;;0.20;0.20;;;;;;;3.24;100.00;102503.03;4998190;28;20536;-76
2022/12/02 01:33:48;;;;;;;0.20;0.20;;;;;;;3.35;100.00;102527.59;4976872;28;20054;-76
2022/12/02 01:36:13;;;;;;;0.20;0.20;;;;;;;3.21;100.00;102517.25;4962774;28;20064;-77
2022/12/02 01:38:39;;;;;;;0.20;0.20;;;;;;;3.23;100.00;102528.72;4964035;28;20057;-76
2022/12/02 01:41:05;;;;;;;0.20;0.20;;;;;;;3.25;100.00;102526.91;4986628;28;20034;-76
2022/12/02 01:43:30;;;;;;;0.20;0.20;;;;;;;3.16;100.00;102516.47;4969163;28;20120;-77
2022/12/02 01:45:56;;;;;;;0.20;0.20;;;;;;;3.09;100.00;102504.22;4963834;28;20380;-76
2022/12/02 01:48:21;;;;;;;0.20;0.20;;;;;;;3.26;100.00;102519.81;4980781;28;20370;-76
2022/12/02 01:50:47;;;;;;;0.20;0.20;;;;;;;3.06;100.00;102531.69;4988322;28;20038;-77
2022/12/02 01:53:13;;;;;;;0.20;0.20;;;;;;;3.11;100.00;102528.94;4985630;28;20656;-76
2022/12/02 01:55:38;;;;;;;0.20;0.20;;;;;;;3.02;100.00;102527.34;4980108;28;20033;-77
2022/12/02 01:58:04;;;;;;;0.20;0.20;;;;;;;2.97;100.00;102500.00;4985633;28;20091;-76
2022/12/02 02:00:29;;;;;;;0.20;0.20;;;;;;;3.05;100.00;102521.97;4996865;28;20042;-77
2022/12/02 02:02:55;;;;;;;0.20;0.20;;;;;;;3.08;100.00;102537.84;4976465;28;20034;-77
2022/12/02 02:05:29;;;;;;;0.20;0.20;;;;;;;3.23;100.00;102539.34;4968431;28;20494;-77
2022/12/02 02:07:57;;;;;;;0.20;0.20;;;;;;;3.08;100.00;102524.59;4965700;28;20423;-77
2022/12/02 02:10:24;;;;;;;0.20;0.20;;;;;;;3.03;100.00;102513.19;4989306;28;20544;-77
2022/12/02 02:12:51;;;;;;;0.20;0.20;;;;;;;3.12;100.00;102538.66;4987650;28;20034;-77
2022/12/02 02:15:16;;;;;;;0.20;0.20;;;;;;;3.01;100.00;102525.59;4978086;28;20037;-77
2022/12/02 02:17:43;;;;;;;0.20;0.20;;;;;;;2.98;100.00;102504.41;4981658;28;20031;-77
2022/12/02 02:20:14;;;;;;;0.20;0.20;;;;;;;3.17;100.00;102530.63;4985287;28;20348;-77
2022/12/02 02:22:45;;;;;;;0.13;0.13;;;;;;;2.99;100.00;102506.16;4981453;28;20042;-77
2022/12/02 02:25:13;;;;;;;0.20;0.20;;;;;;;3.06;100.00;102515.78;4986281;28;20072;-77
2022/12/02 02:27:40;;;;;;;0.20;0.20;;;;;;;3.05;100.00;102508.72;4978261;28;20029;-77
2022/12/02 02:30:06;;;;;;;0.20;0.20;;;;;;;3.16;100.00;102527.09;4968144;28;20030;-76
2022/12/02 02:32:31;;;;;;;0.20;0.20;;;;;;;3.07;100.00;102496.28;4986423;28;20113;-76
2022/12/02 02:34:56;;;;;;;0.20;0.20;;;;;;;3.03;100.00;102515.81;4982201;28;20092;-76
2022/12/02 02:37:23;;;;;;;0.20;0.20;;;;;;;3.06;100.00;102505.16;4979271;28;20352;-77
2022/12/02 02:39:48;;;;;;;0.20;0.20;;;;;;;2.93;100.00;102495.66;4988764;28;20112;-77
2022/12/02 02:42:14;;;;;;;0.20;0.20;;;;;;;2.94;100.00;102502.72;4983510;28;20058;-76
2022/12/02 02:44:39;;;;;;;0.20;0.20;;;;;;;3.13;100.00;102517.41;4964601;28;20026;-77
2022/12/02 02:47:04;;;;;;;0.20;0.20;;;;;;;2.99;100.00;102499.09;4971114;28;20040;-77
2022/12/02 02:49:30;;;;;;;0.20;0.20;;;;;;;3.05;100.00;102510.47;4984875;28;20358;-76
2022/12/02 02:51:55;;;;;;;0.20;0.20;;;;;;;3.04;100.00;102493.69;4981829;28;20245;-77
2022/12/02 02:54:20;;;;;;;0.20;0.20;;;;;;;3.05;100.00;102492.78;4985931;28;20034;-77
2022/12/02 02:56:46;;;;;;;0.20;0.20;;;;;;;3.05;100.00;102497.22;4985307;28;20091;-76
2022/12/02 02:59:15;;;;;;;0.20;0.20;;;;;;;2.88;100.00;102484.28;4971742;28;20379;-77
2022/12/02 03:01:41;;;;;;;0.20;0.20;;;;;;;2.75;100.00;102494.25;4968385;28;20058;-76
2022/12/02 03:04:09;;;;;;;0.25;0.25;;;;;;;2.83;100.00;102509.13;4970651;28;20552;-77
2022/12/02 03:06:36;;;;;;;0.10;0.10;;;;;;;2.94;100.00;102516.00;4984464;28;20033;-76
2022/12/02 03:09:03;;;;;;;0.30;0.30;;;;;;;2.86;100.00;102492.25;4982343;28;20030;-76
2022/12/02 03:11:29;;;;;;;0.22;0.22;;;;;;;2.64;100.00;102450.22;4972927;28;20041;-77
2022/12/02 03:13:55;;;;;;;0.30;0.30;;;;;;;2.83;100.00;102482.59;4973240;28;20036;-77
2022/12/02 03:16:21;;;;;;;0.20;0.20;;;;;;;2.59;100.00;102440.63;4969547;28;20045;-76
2022/12/02 03:18:47;;;;;;;0.20;0.20;;;;;;;2.83;100.00;102476.41;4972416;28;20064;-76
2022/12/02 03:21:15;;;;;;;0.20;0.20;;;;;;;2.87;100.00;102496.66;4967556;28;20481;-77
2022/12/02 03:23:42;;;;;;;0.20;0.20;;;;;;;2.89;100.00;102489.56;4974896;28;20036;-76
2022/12/02 03:26:08;;;;;;;0.20;0.20;;;;;;;2.91;100.00;102486.91;4968930;28;20025;-76
2022/12/02 03:28:33;;;;;;;0.30;0.30;;;;;;;2.93;100.00;102490.38;4966492;28;20033;-77
2022/12/02 03:30:59;;;;;;;0.20;0.20;;;;;;;2.91;100.00;102470.97;4981762;28;20105;-76
2022/12/02 03:33:24;;;;;;;0.20;0.20;;;;;;;2.84;100.00;102470.19;4969069;28;20048;-77
2022/12/02 03:35:50;;;;;;;0.20;0.20;;;;;;;2.68;100.00;102449.28;4982843;28;20033;-77
2022/12/02 03:38:15;;;;;;;0.20;0.20;;;;;;;2.74;100.00;102468.63;4965266;28;20463;-76
2022/12/02 03:40:41;;;;;;;0.20;0.20;;;;;;;2.76;100.00;102453.56;4969198;28;20499;-77
2022/12/02 03:43:06;;;;;;;0.20;0.20;;;;;;;2.88;100.00;102469.22;4982184;28;20058;-77
2022/12/02 03:45:32;;;;;;;0.20;0.20;;;;;;;2.81;100.00;102451.69;4977636;28;20081;-76
2022/12/02 03:47:58;;;;;;;0.20;0.20;;;;;;;2.98;100.00;102476.13;4967760;28;20027;-77
2022/12/02 03:50:24;;;;;;;0.20;0.20;;;;;;;2.93;100.00;102455.88;4981953;28;20037;-76
2022/12/02 03:52:49;;;;;;;0.20;0.20;;;;;;;2.77;100.00;102436.75;4964374;28;20030;-76
2022/12/02 03:55:14;;;;;;;0.28;0.28;;;;;;;2.84;100.00;102441.00;4974220;28;20041;-77
2022/12/02 03:57:41;;;;;;;0.20;0.20;;;;;;;2.85;100.00;102438.34;4966746;28;20635;-77
2022/12/02 04:00:07;;;;;;;0.20;0.20;;;;;;;3.01;100.00;102453.94;4968077;28;20495;-76
2022/12/02 04:02:32;;;;;;;0.15;0.15;;;;;;;3.05;100.00;102450.31;4964922;28;20034;-77
2022/12/02 04:04:58;;;;;;;0.25;0.25;;;;;;;3.07;100.00;102447.63;4982279;28;20071;-77
2022/12/02 04:07:23;;;;;;;0.20;0.20;;;;;;;3.06;100.00;102462.69;4963833;28;20033;-77
2022/12/02 04:09:48;;;;;;;0.20;0.20;;;;;;;3.06;100.00;102464.47;4980796;28;20080;-76
2022/12/02 04:12:13;;;;;;;0.30;0.30;;;;;;;2.97;100.00;102453.16;4961868;28;20085;-76
2022/12/02 04:14:39;;;;;;;0.20;0.20;;;;;;;2.97;100.00;102449.59;4970659;28;20034;-76
2022/12/02 04:17:04;;;;;;;0.20;0.20;;;;;;;3.07;100.00;102450.28;4977816;28;20053;-76
2022/12/02 04:19:29;;;;;;;0.20;0.20;;;;;;;3.02;100.00;102439.78;4960796;28;20034;-76
2022/12/02 04:21:55;;;;;;;0.20;0.20;;;;;;;2.84;100.00;102447.22;4964574;28;20033;-77
2022/12/02 04:24:20;;;;;;;0.20;0.20;;;;;;;2.95;100.00;102462.91;4965828;28;20131;-77
2022/12/02 04:26:45;;;;;;;0.20;0.20;;;;;;;2.97;100.00;102444.28;4968225;28;20026;-77
2022/12/02 04:29:11;;;;;;;0.20;0.20;;;;;;;2.91;100.00;102449.75;4978404;28;20108;-77
2022/12/02 04:31:36;;;;;;;0.20;0.20;;;;;;;2.79;100.00;102426.94;4965664;28;20073;-77
2022/12/02 04:34:02;;;;;;;0.20;0.20;;;;;;;2.93;100.00;102439.94;4956532;28;20034;-77
2022/12/02 04:36:27;;;;;;;0.20;0.20;;;;;;;2.96;100.00;102432.81;4957633;28;20062;-77
2022/12/02 04:38:52;;;;;;;0.20;0.20;;;;;;;2.87;100.00;102427.69;4971077;28;20038;-77
2022/12/02 04:41:18;;;;;;;0.20;0.20;;;;;;;2.90;100.00;102442.69;4970507;28;20124;-76
2022/12/02 04:43:43;;;;;;;0.20;0.20;;;;;;;2.87;100.00;102426.81;4970622;28;20049;-76
2022/12/02 04:46:08;;;;;;;0.20;0.20;;;;;;;2.79;100.00;102413.69;4978459;28;20297;-76
2022/12/02 04:48:34;;;;;;;0.20;0.20;;;;;;;2.84;100.00;102431.28;4978656;28;20113;-77
2022/12/02 04:50:59;;;;;;;0.20;0.20;;;;;;;2.84;100.00;102410.06;4981564;28;20030;-76
2022/12/02 04:53:24;;;;;;;0.20;0.20;;;;;;;2.89;100.00;102403.78;4996401;28;20036;-76
2022/12/02 04:55:50;;;;;;;0.20;0.20;;;;;;;2.71;100.00;102392.63;4977546;28;20133;-76
2022/12/02 04:58:15;;;;;;;0.20;0.20;;;;;;;2.91;100.00;102431.19;4978625;28;20034;-76
2022/12/02 05:00:40;;;;;;;0.17;0.17;;;;;;;2.81;100.00;102414.53;4978355;28;20038;-76
2022/12/02 05:03:06;;;;;;;0.20;0.20;;;;;;;2.78;100.00;102404.00;4959437;28;20027;-76
2022/12/02 05:05:31;;;;;;;0.20;0.20;;;;;;;2.82;100.00;102403.91;4977614;28;20026;-76
2022/12/02 05:07:56;;;;;;;0.20;0.20;;;;;;;2.77;100.00;102399.63;4980649;28;20052;-76
2022/12/02 05:10:22;;;;;;;0.20;0.20;;;;;;;2.85;100.00;102395.91;4964061;28;20114;-76
2022/12/02 05:12:47;;;;;;;0.20;0.20;;;;;;;2.87;100.00;102408.25;4962463;28;20063;-76
2022/12/02 05:15:13;;;;;;;0.20;0.20;;;;;;;2.82;100.00;102403.91;4963074;28;21398;-76
2022/12/02 05:17:38;;;;;;;0.20;0.20;;;;;;;2.83;100.00;102386.19;4979929;28;20377;-76
2022/12/02 05:20:04;;;;;;;0.20;0.20;;;;;;;2.74;100.00;102383.75;4972128;28;20034;-76
2022/12/02 05:22:29;;;;;;;0.20;0.20;;;;;;;2.88;100.00;102408.22;4982843;28;20037;-76
2022/12/02 05:24:55;;;;;;;0.20;0.20;;;;;;;2.89;100.00;102409.97;4962036;28;20026;-76
2022/12/02 05:27:20;;;;;;;0.20;0.20;;;;;;;2.68;100.00;102374.13;5004757;28;20045;-76
2022/12/02 05:29:45;;;;;;;0.20;0.20;;;;;;;2.74;100.00;102389.06;4987647;28;20057;-76
2022/12/02 05:32:11;;;;;;;0.13;0.13;;;;;;;2.72;100.00;102391.72;4981047;28;20027;-76
2022/12/02 05:34:36;;;;;;;0.20;0.20;;;;;;;2.76;100.00;102380.16;5002344;28;20021;-77
2022/12/02 05:37:02;;;;;;;0.20;0.20;;;;;;;2.79;100.00;102392.47;4985421;28;20034;-76
2022/12/02 05:39:27;;;;;;;0.17;0.17;;;;;;;2.75;100.00;102391.66;4970493;28;20400;-76
2022/12/02 05:41:56;;;;;;;0.20;0.20;;;;;;;2.78;100.00;102396.91;4986649;28;20468;-77
2022/12/02 05:44:24;;;;;;;0.20;0.20;;;;;;;2.82;100.00;102393.31;4981225;28;20034;-76
2022/12/02 05:46:50;;;;;;;0.20;0.20;;;;;;;2.93;100.00;102414.31;4987205;28;20022;-76
2022/12/02 05:49:20;;;;;;;0.20;0.20;;;;;;;2.85;100.00;102402.97;4986901;28;20029;-76
2022/12/02 05:52:16;;;;;;;0.20;0.20;;;;;;;2.97;100.00;102409.78;4988969;28;20286;-76
2022/12/02 05:54:41;;;;;;;0.20;0.20;;;;;;;2.71;100.00;102387.31;4955713;28;20034;-77
2022/12/02 05:57:10;;;;;;;0.20;0.20;;;;;;;2.84;100.00;102409.19;4984972;28;20034;-76
2022/12/02 05:59:35;;;;;;;0.20;0.20;;;;;;;2.87;100.00;102385.25;4986624;28;20030;-76
2022/12/02 06:02:00;;;;;;;0.15;0.15;;;;;;;2.81;100.00;102396.84;4982540;28;20392;-77
2022/12/02 06:04:28;;;;;;;0.20;0.20;;;;;;;2.82;100.00;102403.91;4980068;28;20113;-76
2022/12/02 06:06:54;;;;;;;0.20;0.20;;;;;;;2.92;100.00;102411.66;4999860;28;20034;-77
2022/12/02 06:09:23;;;;;;;0.20;0.20;;;;;;;2.88;100.00;102402.91;4966754;28;20040;-76
2022/12/02 06:11:49;;;;;;;0.20;0.20;;;;;;;2.73;100.00;102393.47;4967546;28;20037;-76
2022/12/02 06:14:18;;;;;;;0.20;0.20;;;;;;;2.82;100.00;102408.31;4984866;28;20030;-76
2022/12/02 06:16:49;;;;;;;0.20;0.20;;;;;;;2.61;100.00;102369.88;4969665;28;20030;-76
2022/12/02 06:19:25;;;;;;;0.20;0.20;;;;;;;2.73;100.00;102401.44;4980435;28;20532;-76
2022/12/02 06:21:51;;;;;;;0.20;0.20;;;;;;;2.70;100.00;102404.13;4987440;28;20029;-76
2022/12/02 06:24:21;;;;;;;0.20;0.20;;;;;;;2.67;100.00;102398.91;4984371;28;20022;-77
2022/12/02 06:26:49;;;;;;;0.20;0.20;;;;;;;2.50;100.00;102386.84;4980755;28;20024;-75
2022/12/02 06:29:16;;;;;;;0.20;0.20;;;;;;;2.62;100.00;102371.63;4974579;28;20891;-77
2022/12/02 06:31:42;;;;;;;0.20;0.20;;;;;;;2.66;100.00;102390.06;4983942;28;20096;-77
2022/12/02 06:34:32;;;;;;;0.20;0.20;;;;;;;2.72;100.00;102405.00;4979110;28;20030;-76
2022/12/02 06:37:01;;;;;;;0.20;0.20;;;;;;;2.65;100.00;102392.78;4995296;28;20034;-76
2022/12/02 06:39:26;;;;;;;0.10;0.10;;;;;;;2.49;100.00;102376.28;4980589;28;20061;-76
2022/12/02 06:41:52;;;;;;;0.20;0.20;;;;;;;2.72;100.00;102394.38;4983521;28;20763;-76
2022/12/02 06:47:31;;;;;;;0.10;0.10;;;;;;;2.77;100.00;102403.13;4979227;28;20519;-76
2022/12/02 06:50:11;;;;;;;0.20;0.20;;;;;;;2.62;100.00;102367.16;4999280;28;20022;-76
2022/12/02 06:52:43;;;;;;;0.20;0.20;;;;;;;2.75;100.00;102401.41;4978304;28;20556;-77
2022/12/02 06:55:29;;;;;;;0.10;0.10;;;;;;;2.73;100.00;102401.44;4993268;28;20503;-77
2022/12/02 06:57:56;;;;;;;0.20;0.20;;;;;;;2.62;100.00;102399.00;4975390;28;20076;-76
2022/12/02 07:00:21;;;;;;;0.20;0.20;;;;;;;2.67;100.00;102381.22;4982674;28;20036;-76
2022/12/02 07:02:47;;;;;;;0.20;0.20;;;;;;;2.75;100.00;102402.28;4974158;28;20029;-76
2022/12/02 07:05:20;;;;;;;0.20;0.20;;;;;;;2.69;100.00;102407.69;4994354;28;20037;-76
2022/12/02 07:07:45;;;;;;;0.20;0.20;;;;;;;2.80;100.00;102405.72;4975110;28;20033;-77
2022/12/02 07:10:20;;;;;;;0.20;0.20;;;;;;;2.51;100.00;102390.38;4994118;28;20283;-76
2022/12/02 07:12:45;;;;;;;0.20;0.20;;;;;;;2.56;100.00;102396.44;4955907;28;20133;-77
2022/12/02 07:15:37;;;;;;;0.20;0.20;;;;;;;2.63;100.00;102416.66;4981259;28;20392;-76
2022/12/02 07:18:17;;;;;;;0.20;0.20;;;;;;;2.55;100.00;102416.81;4998543;28;20117;-77
2022/12/02 07:20:43;;;;;;;0.20;0.20;;;;;;;2.57;100.00;102397.34;4996708;28;20536;-76
2022/12/02 07:23:19;;;;;;;0.20;0.20;;;;;;;2.62;100.00;102398.13;4999702;28;20034;-77
2022/12/02 07:25:55;;;;;;;0.20;0.20;;;;;;;2.62;100.00;102414.91;4979249;28;20068;-77
2022/12/02 07:28:23;;;;;;;0.20;0.20;;;;;;;2.61;100.00;102412.28;4957416;28;20044;-77
2022/12/02 07:31:09;;;;;;;0.20;0.20;;;;;;;2.36;100.00;102387.09;4991187;28;20033;-77
2022/12/02 07:33:35;;;;;;;0.20;0.20;;;;;;;2.50;100.00;102391.28;4966367;28;20112;-76
2022/12/02 07:36:00;;;;;;;0.20;0.20;;;;;;;2.53;100.00;102415.06;4974119;28;20435;-76
2022/12/02 07:38:25;;;;;;;0.20;0.20;;;;;;;2.39;100.00;102392.34;4976323;28;20030;-76
2022/12/02 07:40:51;;;;;;;0.20;0.20;;;;;;;2.52;100.00;102410.66;4994313;28;20041;-76
2022/12/02 07:43:16;;;;;;;0.20;0.20;;;;;;;2.44;100.00;102397.56;4992015;28;20068;-76
2022/12/02 07:45:41;;;;;;;0.20;0.20;;;;;;;2.33;100.00;102384.50;4976585;28;20052;-76
2022/12/02 07:48:07;;;;;;;0.20;0.20;;;;;;;2.39;100.00;102380.84;4992717;28;20064;-76
2022/12/02 07:50:32;;;;;;;0.20;0.20;;;;;;;2.58;100.00;102417.66;4993404;28;20463;-77
2022/12/02 07:52:58;;;;;;;0.10;0.10;;;;;;;2.45;100.00;102406.41;4990309;28;20438;-72
2022/12/02 07:55:24;;;;;;;0.20;0.20;;;;;;;2.48;100.00;102401.03;4977917;28;20025;-77
2022/12/02 07:57:49;;;;;;;0.20;0.20;;;;;;;2.45;100.00;102409.91;4975604;28;20112;-77
2022/12/02 08:00:15;;;;;;;0.20;0.20;;;;;;;2.48;100.00;102416.97;4994531;28;20121;-78
2022/12/02 08:02:40;;;;;;;0.20;0.20;;;;;;;2.32;100.00;102388.06;4995504;28;20026;-78
2022/12/02 08:05:06;;;;;;;0.20;0.20;;;;;;;2.53;100.00;102408.00;4975073;28;20115;-79
2022/12/02 08:07:31;;;;;;;0.30;0.30;;;;;;;2.57;100.00;102416.75;4975121;28;20043;-78
2022/12/02 08:09:57;;;;;;;0.20;0.20;;;;;;;2.48;100.00;102411.66;4995902;28;20113;-79
2022/12/02 08:12:22;;;;;;;0.20;0.20;;;;;;;2.38;100.00;102397.69;4956460;28;20046;-78
2022/12/02 08:14:47;;;;;;;0.10;0.10;;;;;;;2.60;100.00;102429.97;4975293;28;20026;-77
2022/12/02 08:17:13;;;;;;;0.20;0.20;;;;;;;2.39;100.00;102404.72;4976266;28;20088;-78
2022/12/02 08:19:40;;;;;;;0.20;0.20;;;;;;;2.41;100.00;102389.66;4973435;28;20204;-72
2022/12/02 08:22:05;;;;;;;0.20;0.20;;;;;;;2.57;100.00;102418.56;4964688;28;21237;-77
2022/12/02 08:24:31;;;;;;;0.20;0.20;;;;;;;2.30;100.00;102392.50;4989142;28;20562;-78
2022/12/02 08:26:56;;;;;;;0.20;0.20;;;;;;;2.09;100.00;102384.03;4975743;28;20038;-77
2022/12/02 08:29:21;;;;;;;0.20;0.20;;;;;;;2.24;100.00;102390.00;4976738;28;20036;-76
2022/12/02 08:31:47;;;;;;;0.20;0.20;;;;;;;2.23;100.00;102385.59;4975449;28;20035;-78
2022/12/02 08:34:12;;;;;;;0.10;0.10;;;;;;;2.40;100.00;102425.03;4960662;28;20488;-78
2022/12/02 08:36:37;;;;;;;0.20;0.20;;;;;;;2.31;100.00;102394.25;4964329;28;20029;-77
2022/12/02 08:39:04;;;;;;;0.20;0.20;;;;;;;2.29;100.00;102414.63;4965237;28;20061;-78
2022/12/02 08:41:31;;;;;;;0.10;0.10;;;;;;;2.28;100.00;102409.34;4962145;28;20030;-77
2022/12/02 08:43:56;;;;;;;0.20;0.20;;;;;;;2.12;100.00;102391.06;4978689;28;20472;-78
2022/12/02 08:46:21;;;;;;;0.20;0.20;;;;;;;2.29;100.00;102403.16;4965795;28;20034;-78
2022/12/02 08:48:47;;;;;;;0.20;0.20;;;;;;;2.21;100.00;102403.28;4961128;28;20022;-77
2022/12/02 08:51:12;;;;;;;0.20;0.20;;;;;;;2.12;100.00;102392.84;4963268;28;20030;-77
2022/12/02 08:53:37;;;;;;;0.20;0.20;;;;;;;2.25;100.00;102399.69;4962989;28;20064;-77
2022/12/02 08:56:03;;;;;;;0.20;0.20;;;;;;;2.07;100.00;102396.44;4976545;28;20115;-77
2022/12/02 08:58:28;;;;;;;0.20;0.20;;;;;;;1.95;100.00;102397.53;4980458;28;20038;-77
2022/12/02 09:00:53;;;;;;;0.28;0.28;;;;;;;2.16;100.00;102413.09;4961745;28;20030;-77
2022/12/02 09:03:19;;;;;;;0.20;0.20;;;;;;;2.16;100.00;102408.66;4972847;28;20030;-77
2022/12/02 09:05:44;;;;;;;0.20;0.20;;;;;;;2.17;100.00;102409.53;4959634;28;20029;-77
2022/12/02 09:08:09;;;;;;;0.10;0.10;;;;;;;2.15;100.00;102411.34;4980611;28;20072;-78
2022/12/02 09:10:35;;;;;;;0.20;0.20;;;;;;;2.00;100.00;102384.19;4975224;28;20422;-77
2022/12/02 09:13:00;;;;;;;0.20;0.20;;;;;;;2.05;100.00;102387.66;4970437;28;20129;-78
2022/12/02 09:15:25;;;;;;;0.20;0.20;;;;;;;2.04;100.00;102385.91;4962626;28;20042;-78
2022/12/02 09:17:51;;;;;;;0.20;0.20;;;;;;;2.24;100.00;102397.94;4995198;28;20071;-78
2022/12/02 09:20:16;;;;;;;0.20;0.20;;;;;;;2.23;100.00;102394.41;4978695;28;20041;-77
2022/12/02 09:22:45;;;;;;;0.20;0.20;;;;;;;2.30;100.00;102403.13;4977880;28;20033;-77
2022/12/02 09:25:11;;;;;;;0.20;0.20;;;;;;;2.34;100.00;102404.81;4967392;28;20026;-77
2022/12/02 09:27:37;;;;;;;0.20;0.20;;;;;;;2.33;100.00;102415.47;4965288;28;20110;-77
2022/12/02 09:30:03;;;;;;;0.20;0.20;;;;;;;2.25;100.00;102403.22;4965095;28;20069;-78
2022/12/02 09:32:29;;;;;;;0.30;0.30;;;;;;;2.27;100.00;102397.00;4976618;28;20045;-77
2022/12/02 09:34:55;;;;;;;0.52;0.30;;;;;;;2.25;100.00;102378.50;4965401;28;20129;-77
2022/12/02 09:37:20;;;;;;;0.20;0.20;;;;;;;2.42;100.00;102412.63;4975076;28;20132;-77
2022/12/02 09:39:47;;;;;;;0.20;0.20;;;;;;;2.36;100.00;102395.06;4976995;28;20040;-77
2022/12/02 09:42:12;;;;;;;0.20;0.20;;;;;;;2.38;100.00;102393.25;4976953;28;20468;-77
2022/12/02 09:44:38;;;;;;;0.30;0.30;;;;;;;2.37;100.00;102395.94;4964319;28;20030;-77
2022/12/02 09:47:04;;;;;;;0.20;0.20;;;;;;;2.43;100.00;102405.56;4961721;28;20741;-77
2022/12/02 09:49:30;;;;;;;0.22;0.22;;;;;;;2.44;100.00;102404.66;4972710;28;20061;-77
2022/12/02 09:51:57;;;;;;;0.20;0.20;;;;;;;2.50;100.00;102408.06;4975691;28;20037;-77
2022/12/02 09:54:23;;;;;;;0.28;0.28;;;;;;;2.37;100.00;102378.25;4971748;28;20025;-77
2022/12/02 09:56:48;;;;;;;0.20;0.20;;;;;;;2.35;100.00;102382.72;4970718;28;20030;-77
2022/12/02 09:59:15;;;;;;;0.30;0.30;;;;;;;2.61;100.00;102397.25;4976088;28;20025;-77
2022/12/02 10:01:43;;;;;;;0.30;0.30;;;;;;;2.60;100.00;102403.44;4990945;28;20030;-77
2022/12/02 10:04:09;;;;;;;0.30;0.30;;;;;;;2.54;100.00;102372.63;4960312;28;20026;-77
2022/12/02 10:06:34;;;;;;;0.20;0.20;;;;;;;2.79;100.00;102381.84;4963290;28;20036;-76
2022/12/02 10:09:00;;;;;;;0.20;0.20;;;;;;;2.71;100.00;102358.16;4964519;28;20121;-77
2022/12/02 10:11:27;;;;;;;0.30;0.30;;;;;;;2.65;100.00;102367.13;4975413;28;20060;-78
2022/12/02 10:13:54;;;;;;;0.30;0.30;;;;;;;2.61;100.00;102367.22;4967407;28;20081;-77
2022/12/02 10:16:19;;;;;;;0.20;0.20;;;;;;;2.73;100.00;102387.31;4978646;28;20033;-78
2022/12/02 10:18:45;;;;;;;0.20;0.20;;;;;;;2.76;100.00;102380.16;4965524;28;20030;-77
2022/12/02 10:21:11;;;;;;;0.30;0.30;;;;;;;2.38;100.00;102326.97;4978978;28;20033;-77
2022/12/02 10:23:58;;;;;;;0.30;0.30;;;;;;;2.82;100.00;102389.75;4979223;28;20034;-77
2022/12/02 10:26:24;;;;;;;0.20;0.20;;;;;;;2.66;100.00;102360.91;4966746;28;20030;-77
2022/12/02 10:29:02;;;;;;;0.20;0.20;;;;;;;2.88;100.00;102387.00;4963530;28;20056;-77
2022/12/02 10:31:27;;;;;;;0.30;0.30;;;;;;;2.80;100.00;102373.00;4981026;28;20776;-78
2022/12/02 10:33:56;;;;;;;0.25;0.25;;;;;;;2.84;100.00;102369.38;4976740;28;20038;-77
2022/12/02 10:36:30;;;;;;;0.30;0.30;;;;;;;2.61;100.00;102338.91;4966733;28;20377;-77
2022/12/02 10:39:14;;;;;;;0.30;0.30;;;;;;;2.79;100.00;102374.78;4964660;28;20317;-77
2022/12/02 10:41:39;;;;;;;0.30;0.30;;;;;;;2.82;100.00;102356.16;4977893;28;20029;-77
2022/12/02 10:44:12;;;;;;;0.28;0.28;;;;;;;3.06;100.00;102371.56;4977015;28;20096;-77
2022/12/02 10:46:38;;;;;;;0.20;0.20;;;;;;;2.80;100.00;102350.00;4983052;28;20025;-78
2022/12/02 10:49:24;;;;;;;0.30;0.30;;;;;;;2.90;100.00;102347.19;4969700;28;20029;-78
2022/12/02 10:51:50;;;;;;;0.20;0.20;;;;;;;2.89;100.00;102354.25;4992025;28;20052;-77
2022/12/02 10:54:22;;;;;;;0.20;0.20;;;;;;;2.88;100.00;102349.84;4969718;28;20782;-77
2022/12/02 10:56:47;;;;;;;0.30;0.30;;;;;;;3.05;100.00;102352.13;4973092;28;20026;-77
2022/12/02 10:59:14;;;;;;;0.30;0.30;;;;;;;2.99;100.00;102341.66;4975294;28;20037;-77
2022/12/02 11:01:40;;;;;;;0.20;0.20;;;;;;;2.90;100.00;102352.47;4984036;28;20041;-78
2022/12/02 11:04:10;;;;;;;0.20;0.20;;;;;;;3.08;100.00;102369.75;4981550;28;20030;-78
2022/12/02 11:06:35;;;;;;;0.20;0.20;;;;;;;2.79;100.00;102350.91;4969919;28;20040;-77
2022/12/02 11:09:01;;;;;;;0.20;0.20;;;;;;;3.05;100.00;102364.53;4997225;28;20073;-77
2022/12/02 11:11:26;;;;;;;0.20;0.20;;;;;;;3.17;100.00;102358.97;4980711;28;20026;-77
2022/12/02 11:13:58;;;;;;;0.30;0.30;;;;;;;2.96;100.00;102370.91;4983037;28;20072;-77
2022/12/02 11:16:26;;;;;;;0.20;0.20;;;;;;;2.96;100.00;102368.25;4969537;28;20034;-77
2022/12/02 11:19:22;;;;;;;0.20;0.20;;;;;;;2.82;100.00;102337.59;4998667;28;20042;-78
2022/12/02 11:21:48;;;;;;;0.20;0.20;;;;;;;2.93;100.00;102345.31;4974347;28;20477;-77
2022/12/02 11:24:23;;;;;;;0.20;0.20;;;;;;;2.97;100.00;102362.94;4973730;28;20640;-77
2022/12/02 11:27:03;;;;;;;0.28;0.28;;;;;;;2.90;100.00;102365.75;4984939;28;20029;-78
2022/12/02 11:29:29;;;;;;;0.20;0.20;;;;;;;2.91;100.00;102364.84;4998131;28;20022;-78